sensor_id;sensor_type;location;lat;lon;timestamp;P1;durP1;ratioP1;P2;durP2;ratioP2
4430;SDS011;2228;48.140;11.488;2023-04-25T00:00:28;5.95;;;2.40;;
4430;SDS011;2228;48.140;11.488;2023-04-25T00:02:55;3.87;;;2.20;;
4430;SDS011;2228;48.140;11.488;2023-04-25T00:05:25;3.25;;;2.33;;
4430;SDS011;2228;48.140;11.488;2023-04-25T00:07:52;4.80;;;2.38;;
4430;SDS011;2228;48.140;11.488;2023-04-25T00:10:20;5.50;;;2.30;;
4430;SDS011;2228;48.140;11.488;2023-04-25T00:12:47;5.60;;;2.50;;
4430;SDS011;2228;48.140;11.488;2023-04-25T00:15:14;3.00;;;2.03;;
4430;SDS011;2228;48.140;11.488;2023-04-25T00:17:41;2.70;;;2.00;;
4430;SDS011;2228;48.140;11.488;2023-04-25T00:20:08;2.50;;;1.80;;
4430;SDS011;2228;48.140;11.488;2023-04-25T00:22:39;3.50;;;2.10;;
4430;SDS011;2228;48.140;11.488;2023-04-25T00:25:06;3.83;;;2.00;;
4430;SDS011;2228;48.140;11.488;2023-04-25T00:27:33;4.57;;;2.28;;
4430;SDS011;2228;48.140;11.488;2023-04-25T00:30:00;4.38;;;1.90;;
4430;SDS011;2228;48.140;11.488;2023-04-25T00:32:27;3.40;;;1.95;;
4430;SDS011;2228;48.140;11.488;2023-04-25T00:34:54;3.70;;;2.10;;
4430;SDS011;2228;48.140;11.488;2023-04-25T00:37:22;2.38;;;2.00;;
4430;SDS011;2228;48.140;11.488;2023-04-25T00:39:51;3.80;;;2.47;;
4430;SDS011;2228;48.140;11.488;2023-04-25T00:42:18;4.15;;;2.50;;
4430;SDS011;2228;48.140;11.488;2023-04-25T00:44:46;4.18;;;2.30;;
4430;SDS011;2228;48.140;11.488;2023-04-25T00:47:13;4.03;;;2.30;;
4430;SDS011;2228;48.140;11.488;2023-04-25T00:49:42;6.10;;;2.40;;
4430;SDS011;2228;48.140;11.488;2023-04-25T00:52:09;4.00;;;2.60;;
4430;SDS011;2228;48.140;11.488;2023-04-25T00:54:36;3.30;;;2.10;;
4430;SDS011;2228;48.140;11.488;2023-04-25T00:57:06;5.03;;;2.75;;
4430;SDS011;2228;48.140;11.488;2023-04-25T00:59:33;3.30;;;2.55;;
4430;SDS011;2228;48.140;11.488;2023-04-25T01:02:02;4.00;;;2.67;;
4430;SDS011;2228;48.140;11.488;2023-04-25T01:04:30;3.92;;;2.30;;
4430;SDS011;2228;48.140;11.488;2023-04-25T01:06:57;4.03;;;2.65;;
4430;SDS011;2228;48.140;11.488;2023-04-25T01:09:26;3.80;;;2.40;;
4430;SDS011;2228;48.140;11.488;2023-04-25T01:11:56;3.28;;;2.47;;
4430;SDS011;2228;48.140;11.488;2023-04-25T01:14:24;3.50;;;2.57;;
4430;SDS011;2228;48.140;11.488;2023-04-25T01:16:52;3.75;;;2.40;;
4430;SDS011;2228;48.140;11.488;2023-04-25T01:19:19;2.73;;;2.10;;
4430;SDS011;2228;48.140;11.488;2023-04-25T01:21:48;3.08;;;2.50;;
4430;SDS011;2228;48.140;11.488;2023-04-25T01:24:15;4.80;;;2.60;;
4430;SDS011;2228;48.140;11.488;2023-04-25T01:26:42;3.95;;;2.60;;
4430;SDS011;2228;48.140;11.488;2023-04-25T01:29:14;3.70;;;2.40;;
4430;SDS011;2228;48.140;11.488;2023-04-25T01:31:41;4.60;;;2.23;;
4430;SDS011;2228;48.140;11.488;2023-04-25T01:34:09;2.53;;;2.20;;
4430;SDS011;2228;48.140;11.488;2023-04-25T01:36:36;3.33;;;2.40;;
4430;SDS011;2228;48.140;11.488;2023-04-25T01:39:04;6.50;;;2.58;;
4430;SDS011;2228;48.140;11.488;2023-04-25T01:41:32;7.20;;;2.88;;
4430;SDS011;2228;48.140;11.488;2023-04-25T01:43:59;3.95;;;2.72;;
4430;SDS011;2228;48.140;11.488;2023-04-25T01:46:26;5.10;;;2.40;;
4430;SDS011;2228;48.140;11.488;2023-04-25T01:48:53;3.20;;;2.50;;
4430;SDS011;2228;48.140;11.488;2023-04-25T01:51:20;3.45;;;2.45;;
4430;SDS011;2228;48.140;11.488;2023-04-25T01:53:48;3.33;;;2.20;;
4430;SDS011;2228;48.140;11.488;2023-04-25T01:56:16;4.10;;;2.28;;
4430;SDS011;2228;48.140;11.488;2023-04-25T01:58:44;4.25;;;2.55;;
4430;SDS011;2228;48.140;11.488;2023-04-25T02:01:11;4.28;;;2.50;;
4430;SDS011;2228;48.140;11.488;2023-04-25T02:03:38;2.92;;;2.40;;
4430;SDS011;2228;48.140;11.488;2023-04-25T02:06:05;5.30;;;3.00;;
4430;SDS011;2228;48.140;11.488;2023-04-25T02:08:32;3.78;;;2.67;;
4430;SDS011;2228;48.140;11.488;2023-04-25T02:10:59;3.72;;;2.58;;
4430;SDS011;2228;48.140;11.488;2023-04-25T02:13:28;5.25;;;3.00;;
4430;SDS011;2228;48.140;11.488;2023-04-25T02:15:55;3.92;;;2.90;;
4430;SDS011;2228;48.140;11.488;2023-04-25T02:18:22;5.23;;;2.70;;
4430;SDS011;2228;48.140;11.488;2023-04-25T02:20:51;3.50;;;2.42;;
4430;SDS011;2228;48.140;11.488;2023-04-25T02:23:18;4.00;;;2.67;;
4430;SDS011;2228;48.140;11.488;2023-04-25T02:25:45;5.43;;;2.58;;
4430;SDS011;2228;48.140;11.488;2023-04-25T02:28:12;6.03;;;2.50;;
4430;SDS011;2228;48.140;11.488;2023-04-25T02:30:40;4.75;;;3.10;;
4430;SDS011;2228;48.140;11.488;2023-04-25T02:33:07;3.40;;;2.40;;
4430;SDS011;2228;48.140;11.488;2023-04-25T02:35:34;3.60;;;2.28;;
4430;SDS011;2228;48.140;11.488;2023-04-25T02:38:02;3.47;;;2.40;;
4430;SDS011;2228;48.140;11.488;2023-04-25T02:40:29;2.77;;;2.10;;
4430;SDS011;2228;48.140;11.488;2023-04-25T02:42:57;3.37;;;2.40;;
4430;SDS011;2228;48.140;11.488;2023-04-25T02:45:23;3.45;;;2.47;;
4430;SDS011;2228;48.140;11.488;2023-04-25T02:47:52;4.63;;;2.30;;
4430;SDS011;2228;48.140;11.488;2023-04-25T02:50:19;3.87;;;2.40;;
4430;SDS011;2228;48.140;11.488;2023-04-25T02:52:46;4.97;;;2.33;;
4430;SDS011;2228;48.140;11.488;2023-04-25T02:55:13;4.15;;;2.03;;
4430;SDS011;2228;48.140;11.488;2023-04-25T02:57:40;5.15;;;3.00;;
4430;SDS011;2228;48.140;11.488;2023-04-25T03:00:07;4.15;;;2.10;;
4430;SDS011;2228;48.140;11.488;2023-04-25T03:02:36;3.40;;;2.20;;
4430;SDS011;2228;48.140;11.488;2023-04-25T03:05:05;4.53;;;2.25;;
4430;SDS011;2228;48.140;11.488;2023-04-25T03:07:33;3.67;;;2.40;;
4430;SDS011;2228;48.140;11.488;2023-04-25T03:09:59;6.18;;;2.30;;
4430;SDS011;2228;48.140;11.488;2023-04-25T03:12:27;5.97;;;2.30;;
4430;SDS011;2228;48.140;11.488;2023-04-25T03:14:54;3.75;;;2.33;;
4430;SDS011;2228;48.140;11.488;2023-04-25T03:17:21;3.05;;;2.28;;
4430;SDS011;2228;48.140;11.488;2023-04-25T03:19:48;5.10;;;2.33;;
4430;SDS011;2228;48.140;11.488;2023-04-25T03:22:16;4.10;;;1.90;;
4430;SDS011;2228;48.140;11.488;2023-04-25T03:24:43;4.18;;;2.30;;
4430;SDS011;2228;48.140;11.488;2023-04-25T03:27:10;6.60;;;2.50;;
4430;SDS011;2228;48.140;11.488;2023-04-25T03:29:37;4.40;;;2.10;;
4430;SDS011;2228;48.140;11.488;2023-04-25T03:32:04;2.85;;;1.90;;
4430;SDS011;2228;48.140;11.488;2023-04-25T03:34:31;4.37;;;2.03;;
4430;SDS011;2228;48.140;11.488;2023-04-25T03:36:58;2.90;;;2.00;;
4430;SDS011;2228;48.140;11.488;2023-04-25T03:39:26;3.35;;;1.90;;
4430;SDS011;2228;48.140;11.488;2023-04-25T03:41:53;5.78;;;2.00;;
4430;SDS011;2228;48.140;11.488;2023-04-25T03:44:20;3.90;;;1.70;;
4430;SDS011;2228;48.140;11.488;2023-04-25T03:46:47;6.10;;;2.10;;
4430;SDS011;2228;48.140;11.488;2023-04-25T03:49:14;2.55;;;1.80;;
4430;SDS011;2228;48.140;11.488;2023-04-25T03:51:41;3.97;;;1.80;;
4430;SDS011;2228;48.140;11.488;2023-04-25T03:54:08;3.28;;;1.70;;
4430;SDS011;2228;48.140;11.488;2023-04-25T03:56:36;2.30;;;1.50;;
4430;SDS011;2228;48.140;11.488;2023-04-25T03:59:03;4.10;;;1.60;;
4430;SDS011;2228;48.140;11.488;2023-04-25T04:01:30;3.50;;;1.70;;
4430;SDS011;2228;48.140;11.488;2023-04-25T04:03:56;2.47;;;1.70;;
4430;SDS011;2228;48.140;11.488;2023-04-25T04:06:23;2.00;;;1.40;;
4430;SDS011;2228;48.140;11.488;2023-04-25T04:08:50;2.95;;;1.98;;
4430;SDS011;2228;48.140;11.488;2023-04-25T04:11:17;3.30;;;1.50;;
4430;SDS011;2228;48.140;11.488;2023-04-25T04:13:47;4.57;;;1.52;;
4430;SDS011;2228;48.140;11.488;2023-04-25T04:16:14;2.83;;;1.67;;
4430;SDS011;2228;48.140;11.488;2023-04-25T04:18:41;2.85;;;1.65;;
4430;SDS011;2228;48.140;11.488;2023-04-25T04:21:08;3.17;;;1.92;;
4430;SDS011;2228;48.140;11.488;2023-04-25T04:23:35;4.25;;;1.75;;
4430;SDS011;2228;48.140;11.488;2023-04-25T04:26:02;2.75;;;1.50;;
4430;SDS011;2228;48.140;11.488;2023-04-25T04:28:30;2.63;;;1.80;;
4430;SDS011;2228;48.140;11.488;2023-04-25T04:30:58;4.60;;;2.00;;
4430;SDS011;2228;48.140;11.488;2023-04-25T04:33:26;4.80;;;1.80;;
4430;SDS011;2228;48.140;11.488;2023-04-25T04:35:53;6.50;;;2.20;;
4430;SDS011;2228;48.140;11.488;2023-04-25T04:38:20;3.60;;;1.90;;
4430;SDS011;2228;48.140;11.488;2023-04-25T04:40:47;4.35;;;1.67;;
4430;SDS011;2228;48.140;11.488;2023-04-25T04:43:15;3.10;;;2.60;;
4430;SDS011;2228;48.140;11.488;2023-04-25T04:45:43;7.38;;;1.70;;
4430;SDS011;2228;48.140;11.488;2023-04-25T04:48:12;2.00;;;1.77;;
4430;SDS011;2228;48.140;11.488;2023-04-25T04:50:39;2.90;;;1.80;;
4430;SDS011;2228;48.140;11.488;2023-04-25T04:53:06;2.78;;;1.70;;
4430;SDS011;2228;48.140;11.488;2023-04-25T04:55:34;3.60;;;2.05;;
4430;SDS011;2228;48.140;11.488;2023-04-25T04:58:01;2.70;;;1.90;;
4430;SDS011;2228;48.140;11.488;2023-04-25T05:00:28;4.78;;;1.90;;
4430;SDS011;2228;48.140;11.488;2023-04-25T05:02:55;5.80;;;2.50;;
4430;SDS011;2228;48.140;11.488;2023-04-25T05:05:23;3.95;;;1.50;;
4430;SDS011;2228;48.140;11.488;2023-04-25T05:07:51;3.88;;;2.10;;
4430;SDS011;2228;48.140;11.488;2023-04-25T05:10:18;3.47;;;2.20;;
4430;SDS011;2228;48.140;11.488;2023-04-25T05:12:46;2.90;;;2.40;;
4430;SDS011;2228;48.140;11.488;2023-04-25T05:15:13;3.28;;;2.33;;
4430;SDS011;2228;48.140;11.488;2023-04-25T05:17:42;5.10;;;2.10;;
4430;SDS011;2228;48.140;11.488;2023-04-25T05:20:09;4.75;;;2.10;;
4430;SDS011;2228;48.140;11.488;2023-04-25T05:22:38;3.60;;;2.00;;
4430;SDS011;2228;48.140;11.488;2023-04-25T05:27:46;8.15;;;2.30;;
4430;SDS011;2228;48.140;11.488;2023-04-25T05:30:23;4.68;;;2.20;;
4430;SDS011;2228;48.140;11.488;2023-04-25T05:33:27;3.95;;;1.92;;
4430;SDS011;2228;48.140;11.488;2023-04-25T05:35:58;5.47;;;2.80;;
4430;SDS011;2228;48.140;11.488;2023-04-25T06:06:14;7.75;;;3.50;;
4430;SDS011;2228;48.140;11.488;2023-04-25T06:08:44;5.90;;;3.15;;
4430;SDS011;2228;48.140;11.488;2023-04-25T06:11:13;5.18;;;3.63;;
4430;SDS011;2228;48.140;11.488;2023-04-25T06:13:40;6.28;;;3.92;;
4430;SDS011;2228;48.140;11.488;2023-04-25T06:16:07;9.20;;;4.10;;
4430;SDS011;2228;48.140;11.488;2023-04-25T06:18:34;12.50;;;4.40;;
4430;SDS011;2228;48.140;11.488;2023-04-25T06:21:00;7.78;;;3.88;;
4430;SDS011;2228;48.140;11.488;2023-04-25T06:23:29;9.30;;;4.45;;
4430;SDS011;2228;48.140;11.488;2023-04-25T06:25:56;6.20;;;4.10;;
4430;SDS011;2228;48.140;11.488;2023-04-25T06:28:23;8.17;;;4.63;;
4430;SDS011;2228;48.140;11.488;2023-04-25T06:30:49;4.85;;;3.80;;
4430;SDS011;2228;48.140;11.488;2023-04-25T06:33:16;10.93;;;3.60;;
4430;SDS011;2228;48.140;11.488;2023-04-25T06:35:43;5.82;;;3.92;;
4430;SDS011;2228;48.140;11.488;2023-04-25T06:38:10;8.95;;;4.03;;
4430;SDS011;2228;48.140;11.488;2023-04-25T06:40:39;9.57;;;4.55;;
4430;SDS011;2228;48.140;11.488;2023-04-25T06:43:05;11.90;;;5.20;;
4430;SDS011;2228;48.140;11.488;2023-04-25T06:45:32;11.73;;;6.03;;
4430;SDS011;2228;48.140;11.488;2023-04-25T06:47:59;8.20;;;4.43;;
4430;SDS011;2228;48.140;11.488;2023-04-25T06:50:26;5.57;;;4.43;;
4430;SDS011;2228;48.140;11.488;2023-04-25T06:52:53;9.52;;;4.03;;
4430;SDS011;2228;48.140;11.488;2023-04-25T06:55:20;5.63;;;3.65;;
4430;SDS011;2228;48.140;11.488;2023-04-25T06:57:51;6.55;;;3.25;;
4430;SDS011;2228;48.140;11.488;2023-04-25T07:00:27;6.15;;;3.00;;
4430;SDS011;2228;48.140;11.488;2023-04-25T07:02:55;5.93;;;3.50;;
4430;SDS011;2228;48.140;11.488;2023-04-25T07:05:22;10.97;;;3.13;;
4430;SDS011;2228;48.140;11.488;2023-04-25T07:07:49;10.73;;;3.60;;
4430;SDS011;2228;48.140;11.488;2023-04-25T07:10:15;6.88;;;3.85;;
4430;SDS011;2228;48.140;11.488;2023-04-25T07:12:42;7.95;;;3.20;;
4430;SDS011;2228;48.140;11.488;2023-04-25T07:15:11;10.75;;;4.07;;
4430;SDS011;2228;48.140;11.488;2023-04-25T07:17:37;7.85;;;3.15;;
4430;SDS011;2228;48.140;11.488;2023-04-25T07:20:05;4.95;;;3.70;;
4430;SDS011;2228;48.140;11.488;2023-04-25T07:22:34;6.67;;;3.10;;
4430;SDS011;2228;48.140;11.488;2023-04-25T07:25:01;6.60;;;3.20;;
4430;SDS011;2228;48.140;11.488;2023-04-25T07:27:29;4.45;;;2.40;;
4430;SDS011;2228;48.140;11.488;2023-04-25T07:29:56;6.00;;;3.10;;
4430;SDS011;2228;48.140;11.488;2023-04-25T07:32:25;4.05;;;2.58;;
4430;SDS011;2228;48.140;11.488;2023-04-25T07:34:52;5.88;;;3.00;;
4430;SDS011;2228;48.140;11.488;2023-04-25T07:37:19;4.93;;;2.60;;
4430;SDS011;2228;48.140;11.488;2023-04-25T07:39:46;5.97;;;2.60;;
4430;SDS011;2228;48.140;11.488;2023-04-25T07:42:13;6.90;;;3.50;;
4430;SDS011;2228;48.140;11.488;2023-04-25T07:44:40;4.30;;;2.80;;
4430;SDS011;2228;48.140;11.488;2023-04-25T07:47:07;7.10;;;3.20;;
4430;SDS011;2228;48.140;11.488;2023-04-25T07:49:36;6.45;;;2.90;;
4430;SDS011;2228;48.140;11.488;2023-04-25T07:52:04;5.63;;;3.40;;
4430;SDS011;2228;48.140;11.488;2023-04-25T07:54:32;6.45;;;3.83;;
4430;SDS011;2228;48.140;11.488;2023-04-25T07:56:58;7.00;;;3.80;;
4430;SDS011;2228;48.140;11.488;2023-04-25T07:59:26;6.07;;;2.92;;
4430;SDS011;2228;48.140;11.488;2023-04-25T08:01:53;4.47;;;2.90;;
4430;SDS011;2228;48.140;11.488;2023-04-25T08:04:22;5.30;;;3.10;;
4430;SDS011;2228;48.140;11.488;2023-04-25T08:06:50;5.05;;;2.80;;
4430;SDS011;2228;48.140;11.488;2023-04-25T08:09:17;6.70;;;2.60;;
4430;SDS011;2228;48.140;11.488;2023-04-25T08:11:44;3.75;;;2.65;;
4430;SDS011;2228;48.140;11.488;2023-04-25T08:14:11;4.20;;;2.53;;
4430;SDS011;2228;48.140;11.488;2023-04-25T08:16:39;6.50;;;2.72;;
4430;SDS011;2228;48.140;11.488;2023-04-25T08:19:06;4.30;;;2.30;;
4430;SDS011;2228;48.140;11.488;2023-04-25T08:21:32;4.60;;;2.40;;
4430;SDS011;2228;48.140;11.488;2023-04-25T08:24:01;3.75;;;2.08;;
4430;SDS011;2228;48.140;11.488;2023-04-25T08:26:28;3.78;;;2.20;;
4430;SDS011;2228;48.140;11.488;2023-04-25T08:28:55;4.07;;;2.20;;
4430;SDS011;2228;48.140;11.488;2023-04-25T08:31:22;4.60;;;2.10;;
4430;SDS011;2228;48.140;11.488;2023-04-25T08:33:49;2.65;;;2.00;;
4430;SDS011;2228;48.140;11.488;2023-04-25T08:36:17;5.10;;;2.20;;
4430;SDS011;2228;48.140;11.488;2023-04-25T08:38:43;4.90;;;2.00;;
4430;SDS011;2228;48.140;11.488;2023-04-25T08:41:12;2.53;;;1.60;;
4430;SDS011;2228;48.140;11.488;2023-04-25T08:43:42;5.60;;;1.70;;
4430;SDS011;2228;48.140;11.488;2023-04-25T08:46:10;3.83;;;1.73;;
4430;SDS011;2228;48.140;11.488;2023-04-25T08:48:38;5.13;;;1.73;;
4430;SDS011;2228;48.140;11.488;2023-04-25T08:51:08;1.90;;;1.20;;
4430;SDS011;2228;48.140;11.488;2023-04-25T08:53:37;2.90;;;1.30;;
4430;SDS011;2228;48.140;11.488;2023-04-25T08:56:08;2.88;;;1.30;;
4430;SDS011;2228;48.140;11.488;2023-04-25T08:58:39;3.10;;;1.30;;
4430;SDS011;2228;48.140;11.488;2023-04-25T09:01:07;1.65;;;1.20;;
4430;SDS011;2228;48.140;11.488;2023-04-25T09:03:34;2.20;;;1.20;;
4430;SDS011;2228;48.140;11.488;2023-04-25T09:06:02;2.78;;;1.55;;
4430;SDS011;2228;48.140;11.488;2023-04-25T09:08:30;1.80;;;1.17;;
4430;SDS011;2228;48.140;11.488;2023-04-25T09:10:57;3.30;;;1.50;;
4430;SDS011;2228;48.140;11.488;2023-04-25T09:13:24;4.78;;;1.30;;
4430;SDS011;2228;48.140;11.488;2023-04-25T09:15:54;3.42;;;1.40;;
4430;SDS011;2228;48.140;11.488;2023-04-25T09:18:23;2.50;;;1.35;;
4430;SDS011;2228;48.140;11.488;2023-04-25T09:20:51;3.72;;;1.40;;
4430;SDS011;2228;48.140;11.488;2023-04-25T09:23:19;4.53;;;1.50;;
4430;SDS011;2228;48.140;11.488;2023-04-25T09:25:47;3.33;;;1.42;;
4430;SDS011;2228;48.140;11.488;2023-04-25T09:28:14;3.75;;;1.30;;
4430;SDS011;2228;48.140;11.488;2023-04-25T09:30:41;2.80;;;1.60;;
4430;SDS011;2228;48.140;11.488;2023-04-25T09:33:10;3.58;;;1.30;;
4430;SDS011;2228;48.140;11.488;2023-04-25T09:35:38;3.50;;;1.88;;
4430;SDS011;2228;48.140;11.488;2023-04-25T09:38:10;3.50;;;1.50;;
4430;SDS011;2228;48.140;11.488;2023-04-25T09:40:41;5.07;;;1.50;;
4430;SDS011;2228;48.140;11.488;2023-04-25T09:43:09;2.75;;;1.58;;
4430;SDS011;2228;48.140;11.488;2023-04-25T09:45:40;3.80;;;1.58;;
4430;SDS011;2228;48.140;11.488;2023-04-25T09:48:12;1.40;;;1.23;;
4430;SDS011;2228;48.140;11.488;2023-04-25T09:50:43;4.10;;;1.50;;
4430;SDS011;2228;48.140;11.488;2023-04-25T09:53:10;2.80;;;1.75;;
4430;SDS011;2228;48.140;11.488;2023-04-25T09:55:37;2.38;;;1.30;;
4430;SDS011;2228;48.140;11.488;2023-04-25T09:58:05;3.50;;;1.60;;
4430;SDS011;2228;48.140;11.488;2023-04-25T10:00:33;3.60;;;1.30;;
4430;SDS011;2228;48.140;11.488;2023-04-25T10:03:00;4.53;;;1.95;;
4430;SDS011;2228;48.140;11.488;2023-04-25T10:05:33;3.85;;;1.38;;
4430;SDS011;2228;48.140;11.488;2023-04-25T10:08:03;4.20;;;1.60;;
4430;SDS011;2228;48.140;11.488;2023-04-25T10:10:30;3.60;;;1.30;;
4430;SDS011;2228;48.140;11.488;2023-04-25T10:13:02;2.78;;;1.30;;
4430;SDS011;2228;48.140;11.488;2023-04-25T10:15:32;3.97;;;1.50;;
4430;SDS011;2228;48.140;11.488;2023-04-25T10:18:01;2.30;;;1.50;;
4430;SDS011;2228;48.140;11.488;2023-04-25T10:20:29;3.13;;;1.35;;
4430;SDS011;2228;48.140;11.488;2023-04-25T10:23:02;4.55;;;1.60;;
4430;SDS011;2228;48.140;11.488;2023-04-25T10:25:33;3.90;;;1.95;;
4430;SDS011;2228;48.140;11.488;2023-04-25T10:28:00;4.30;;;1.90;;
4430;SDS011;2228;48.140;11.488;2023-04-25T10:30:30;3.47;;;1.75;;
4430;SDS011;2228;48.140;11.488;2023-04-25T10:32:58;0.93;;;0.80;;
4430;SDS011;2228;48.140;11.488;2023-04-25T10:35:25;1.90;;;1.00;;
4430;SDS011;2228;48.140;11.488;2023-04-25T10:37:59;1.85;;;1.05;;
4430;SDS011;2228;48.140;11.488;2023-04-25T10:40:29;1.20;;;1.00;;
4430;SDS011;2228;48.140;11.488;2023-04-25T10:42:57;3.80;;;1.08;;
4430;SDS011;2228;48.140;11.488;2023-04-25T10:46:13;1.10;;;0.90;;
4430;SDS011;2228;48.140;11.488;2023-04-25T10:48:47;4.70;;;1.00;;
4430;SDS011;2228;48.140;11.488;2023-04-25T10:51:16;4.28;;;1.30;;
4430;SDS011;2228;48.140;11.488;2023-04-25T10:53:44;5.60;;;1.67;;
4430;SDS011;2228;48.140;11.488;2023-04-25T10:56:16;3.42;;;1.70;;
4430;SDS011;2228;48.140;11.488;2023-04-25T10:58:45;3.30;;;1.70;;
4430;SDS011;2228;48.140;11.488;2023-04-25T11:01:12;2.25;;;1.55;;
4430;SDS011;2228;48.140;11.488;2023-04-25T11:03:40;3.47;;;1.60;;
4430;SDS011;2228;48.140;11.488;2023-04-25T11:06:11;3.70;;;1.40;;
4430;SDS011;2228;48.140;11.488;2023-04-25T11:08:47;2.97;;;1.20;;
4430;SDS011;2228;48.140;11.488;2023-04-25T11:11:16;1.88;;;1.15;;
4430;SDS011;2228;48.140;11.488;2023-04-25T11:13:44;3.70;;;1.25;;
4430;SDS011;2228;48.140;11.488;2023-04-25T11:16:15;3.72;;;1.00;;
4430;SDS011;2228;48.140;11.488;2023-04-25T11:18:43;1.45;;;0.90;;
4430;SDS011;2228;48.140;11.488;2023-04-25T11:21:10;1.80;;;1.10;;
4430;SDS011;2228;48.140;11.488;2023-04-25T11:23:39;3.58;;;1.67;;
4430;SDS011;2228;48.140;11.488;2023-04-25T11:26:06;3.30;;;1.50;;
4430;SDS011;2228;48.140;11.488;2023-04-25T11:28:45;1.90;;;1.08;;
4430;SDS011;2228;48.140;11.488;2023-04-25T11:31:26;2.40;;;1.00;;
4430;SDS011;2228;48.140;11.488;2023-04-25T11:34:03;2.97;;;1.17;;
4430;SDS011;2228;48.140;11.488;2023-04-25T11:36:51;2.03;;;1.27;;
4430;SDS011;2228;48.140;11.488;2023-04-25T11:39:19;3.28;;;1.30;;
4430;SDS011;2228;48.140;11.488;2023-04-25T11:41:57;6.27;;;2.00;;
4430;SDS011;2228;48.140;11.488;2023-04-25T11:44:28;1.83;;;1.30;;
4430;SDS011;2228;48.140;11.488;2023-04-25T11:47:07;2.70;;;1.20;;
4430;SDS011;2228;48.140;11.488;2023-04-25T12:16:46;1.35;;;0.70;;
4430;SDS011;2228;48.140;11.488;2023-04-25T12:19:13;1.25;;;0.80;;
4430;SDS011;2228;48.140;11.488;2023-04-25T12:21:43;2.40;;;1.00;;
4430;SDS011;2228;48.140;11.488;2023-04-25T12:24:12;1.30;;;0.85;;
4430;SDS011;2228;48.140;11.488;2023-04-25T12:26:47;2.30;;;1.20;;
4430;SDS011;2228;48.140;11.488;2023-04-25T12:29:17;2.10;;;0.90;;
4430;SDS011;2228;48.140;11.488;2023-04-25T12:31:45;1.60;;;1.00;;
4430;SDS011;2228;48.140;11.488;2023-04-25T12:34:12;1.65;;;0.85;;
4430;SDS011;2228;48.140;11.488;2023-04-25T12:36:39;1.90;;;0.82;;
4430;SDS011;2228;48.140;11.488;2023-04-25T12:39:06;3.10;;;0.90;;
4430;SDS011;2228;48.140;11.488;2023-04-25T12:41:34;2.10;;;0.90;;
4430;SDS011;2228;48.140;11.488;2023-04-25T12:44:02;1.60;;;0.90;;
4430;SDS011;2228;48.140;11.488;2023-04-25T12:46:31;2.55;;;1.08;;
4430;SDS011;2228;48.140;11.488;2023-04-25T12:49:03;1.70;;;1.30;;
4430;SDS011;2228;48.140;11.488;2023-04-25T12:51:31;1.60;;;1.00;;
4430;SDS011;2228;48.140;11.488;2023-04-25T12:53:58;2.10;;;0.95;;
4430;SDS011;2228;48.140;11.488;2023-04-25T12:56:25;1.30;;;0.70;;
4430;SDS011;2228;48.140;11.488;2023-04-25T12:58:52;1.95;;;0.90;;
4430;SDS011;2228;48.140;11.488;2023-04-25T13:01:19;1.30;;;0.80;;
4430;SDS011;2228;48.140;11.488;2023-04-25T13:03:48;1.40;;;0.90;;
4430;SDS011;2228;48.140;11.488;2023-04-25T13:06:15;1.23;;;0.80;;
4430;SDS011;2228;48.140;11.488;2023-04-25T13:08:43;2.00;;;0.85;;
4430;SDS011;2228;48.140;11.488;2023-04-25T13:11:11;1.50;;;1.00;;
4430;SDS011;2228;48.140;11.488;2023-04-25T13:13:41;2.35;;;1.00;;
4430;SDS011;2228;48.140;11.488;2023-04-25T13:16:19;1.80;;;1.30;;
4430;SDS011;2228;48.140;11.488;2023-04-25T13:18:48;1.20;;;1.10;;
4430;SDS011;2228;48.140;11.488;2023-04-25T13:21:15;2.55;;;1.05;;
4430;SDS011;2228;48.140;11.488;2023-04-25T13:23:42;2.15;;;1.00;;
4430;SDS011;2228;48.140;11.488;2023-04-25T13:26:11;2.80;;;1.10;;
4430;SDS011;2228;48.140;11.488;2023-04-25T13:28:38;2.33;;;1.10;;
4430;SDS011;2228;48.140;11.488;2023-04-25T13:31:12;2.10;;;1.10;;
4430;SDS011;2228;48.140;11.488;2023-04-25T13:33:41;3.20;;;1.50;;
4430;SDS011;2228;48.140;11.488;2023-04-25T13:36:10;3.60;;;1.23;;
4430;SDS011;2228;48.140;11.488;2023-04-25T13:38:39;2.72;;;1.50;;
4430;SDS011;2228;48.140;11.488;2023-04-25T13:41:08;2.15;;;1.20;;
4430;SDS011;2228;48.140;11.488;2023-04-25T13:43:40;2.47;;;1.30;;
4430;SDS011;2228;48.140;11.488;2023-04-25T13:46:07;1.55;;;1.08;;
4430;SDS011;2228;48.140;11.488;2023-04-25T13:48:36;1.10;;;0.80;;
4430;SDS011;2228;48.140;11.488;2023-04-25T13:51:06;1.33;;;1.10;;
4430;SDS011;2228;48.140;11.488;2023-04-25T13:53:48;1.30;;;0.80;;
4430;SDS011;2228;48.140;11.488;2023-04-25T13:56:17;1.30;;;1.02;;
4430;SDS011;2228;48.140;11.488;2023-04-25T13:58:47;2.10;;;1.40;;
4430;SDS011;2228;48.140;11.488;2023-04-25T14:01:14;2.40;;;1.70;;
4430;SDS011;2228;48.140;11.488;2023-04-25T14:03:41;1.65;;;1.30;;
4430;SDS011;2228;48.140;11.488;2023-04-25T14:06:08;6.20;;;1.80;;
4430;SDS011;2228;48.140;11.488;2023-04-25T14:08:37;2.60;;;1.55;;
4430;SDS011;2228;48.140;11.488;2023-04-25T14:11:04;1.70;;;0.90;;
4430;SDS011;2228;48.140;11.488;2023-04-25T14:13:31;1.20;;;0.90;;
4430;SDS011;2228;48.140;11.488;2023-04-25T14:15:58;1.30;;;0.90;;
4430;SDS011;2228;48.140;11.488;2023-04-25T14:18:26;1.30;;;1.00;;
4430;SDS011;2228;48.140;11.488;2023-04-25T14:20:53;1.10;;;1.00;;
4430;SDS011;2228;48.140;11.488;2023-04-25T14:23:20;1.90;;;1.00;;
4430;SDS011;2228;48.140;11.488;2023-04-25T14:25:48;1.30;;;0.90;;
4430;SDS011;2228;48.140;11.488;2023-04-25T14:28:15;2.25;;;1.10;;
4430;SDS011;2228;48.140;11.488;2023-04-25T14:30:42;1.25;;;0.95;;
4430;SDS011;2228;48.140;11.488;2023-04-25T14:33:09;1.20;;;0.80;;
4430;SDS011;2228;48.140;11.488;2023-04-25T14:35:36;1.48;;;0.85;;
4430;SDS011;2228;48.140;11.488;2023-04-25T14:38:04;1.27;;;1.05;;
4430;SDS011;2228;48.140;11.488;2023-04-25T14:40:31;1.20;;;1.10;;
4430;SDS011;2228;48.140;11.488;2023-04-25T14:42:59;1.00;;;0.80;;
4430;SDS011;2228;48.140;11.488;2023-04-25T14:45:26;1.00;;;0.80;;
4430;SDS011;2228;48.140;11.488;2023-04-25T14:47:54;0.90;;;0.60;;
4430;SDS011;2228;48.140;11.488;2023-04-25T14:50:21;0.82;;;0.70;;
4430;SDS011;2228;48.140;11.488;2023-04-25T14:52:48;0.90;;;0.60;;
4430;SDS011;2228;48.140;11.488;2023-04-25T14:55:15;0.87;;;0.70;;
4430;SDS011;2228;48.140;11.488;2023-04-25T14:57:42;0.80;;;0.60;;
4430;SDS011;2228;48.140;11.488;2023-04-25T15:00:11;1.40;;;0.80;;
4430;SDS011;2228;48.140;11.488;2023-04-25T15:02:41;1.30;;;0.90;;
4430;SDS011;2228;48.140;11.488;2023-04-25T15:05:08;1.00;;;0.90;;
4430;SDS011;2228;48.140;11.488;2023-04-25T15:07:35;1.00;;;0.70;;
4430;SDS011;2228;48.140;11.488;2023-04-25T15:10:02;1.20;;;0.90;;
4430;SDS011;2228;48.140;11.488;2023-04-25T15:12:30;1.50;;;0.90;;
4430;SDS011;2228;48.140;11.488;2023-04-25T15:14:57;1.42;;;0.90;;
4430;SDS011;2228;48.140;11.488;2023-04-25T15:17:26;1.85;;;0.88;;
4430;SDS011;2228;48.140;11.488;2023-04-25T15:19:55;1.90;;;1.00;;
4430;SDS011;2228;48.140;11.488;2023-04-25T15:22:22;1.10;;;0.90;;
4430;SDS011;2228;48.140;11.488;2023-04-25T15:24:49;2.58;;;1.20;;
4430;SDS011;2228;48.140;11.488;2023-04-25T15:27:16;1.70;;;1.30;;
4430;SDS011;2228;48.140;11.488;2023-04-25T15:29:43;2.10;;;1.00;;
4430;SDS011;2228;48.140;11.488;2023-04-25T15:32:10;1.40;;;1.00;;
4430;SDS011;2228;48.140;11.488;2023-04-25T15:34:38;1.20;;;0.90;;
4430;SDS011;2228;48.140;11.488;2023-04-25T15:37:05;1.77;;;1.23;;
4430;SDS011;2228;48.140;11.488;2023-04-25T15:39:32;1.50;;;1.10;;
4430;SDS011;2228;48.140;11.488;2023-04-25T15:41:59;1.80;;;1.10;;
4430;SDS011;2228;48.140;11.488;2023-04-25T15:44:27;1.50;;;1.30;;
4430;SDS011;2228;48.140;11.488;2023-04-25T15:46:54;2.20;;;1.10;;
4430;SDS011;2228;48.140;11.488;2023-04-25T15:49:21;1.60;;;1.20;;
4430;SDS011;2228;48.140;11.488;2023-04-25T15:51:49;1.02;;;0.93;;
4430;SDS011;2228;48.140;11.488;2023-04-25T15:54:17;1.98;;;1.20;;
4430;SDS011;2228;48.140;11.488;2023-04-25T15:56:44;1.30;;;1.00;;
4430;SDS011;2228;48.140;11.488;2023-04-25T15:59:11;1.50;;;1.10;;
4430;SDS011;2228;48.140;11.488;2023-04-25T16:01:38;1.70;;;1.10;;
4430;SDS011;2228;48.140;11.488;2023-04-25T16:04:05;2.28;;;1.70;;